sensor_id;sensor_type;location;lat;lon;timestamp;pressure;altitude;pressure_sealevel;temperature;humidity
65190;BME280;51777;53.570;9.984;2023-06-04T00:02:03;102024.44;;;14.37;100.00
65190;BME280;51777;53.570;9.984;2023-06-04T00:04:29;102034.59;;;14.40;100.00
65190;BME280;51777;53.570;9.984;2023-06-04T00:06:55;102034.59;;;14.40;100.00
65190;BME280;51777;53.570;9.984;2023-06-04T00:09:20;102033.22;;;14.36;100.00
65190;BME280;51777;53.570;9.984;2023-06-04T00:11:46;102028.59;;;14.30;100.00
65190;BME280;51777;53.570;9.984;2023-06-04T00:14:13;102026.25;;;14.27;100.00
65190;BME280;51777;53.570;9.984;2023-06-04T00:16:38;102028.44;;;14.12;100.00
65190;BME280;51777;53.570;9.984;2023-06-04T00:19:03;102023.09;;;14.14;100.00
65190;BME280;51777;53.570;9.984;2023-06-04T00:21:29;102024.47;;;14.18;100.00
65190;BME280;51777;53.570;9.984;2023-06-04T00:23:54;102029.69;;;14.18;100.00
65190;BME280;51777;53.570;9.984;2023-06-04T00:26:20;102017.22;;;14.11;100.00
65190;BME280;51777;53.570;9.984;2023-06-04T00:28:45;102021.34;;;14.04;100.00
65190;BME280;51777;53.570;9.984;2023-06-04T00:31:11;102020.91;;;13.99;100.00
65190;BME280;51777;53.570;9.984;2023-06-04T00:33:38;102021.47;;;13.93;100.00
65190;BME280;51777;53.570;9.984;2023-06-04T00:36:04;102016.09;;;13.85;100.00
65190;BME280;51777;53.570;9.984;2023-06-04T00:38:29;102024.88;;;13.84;100.00
65190;BME280;51777;53.570;9.984;2023-06-04T00:40:55;102020.75;;;13.81;100.00
65190;BME280;51777;53.570;9.984;2023-06-04T00:43:20;102003.53;;;13.80;100.00
65190;BME280;51777;53.570;9.984;2023-06-04T00:45:45;102014.88;;;13.79;100.00
65190;BME280;51777;53.570;9.984;2023-06-04T00:48:11;102010.88;;;13.75;100.00
65190;BME280;51777;53.570;9.984;2023-06-04T00:50:37;102017.19;;;13.73;100.00
65190;BME280;51777;53.570;9.984;2023-06-04T00:53:04;102011.31;;;13.71;100.00
65190;BME280;51777;53.570;9.984;2023-06-04T00:55:30;102019.09;;;13.71;100.00
65190;BME280;51777;53.570;9.984;2023-06-04T00:57:56;102019.09;;;13.71;100.00
65190;BME280;51777;53.570;9.984;2023-06-04T01:00:22;102013.91;;;13.71;100.00
65190;BME280;51777;53.570;9.984;2023-06-04T01:02:49;102012.25;;;13.70;100.00
65190;BME280;51777;53.570;9.984;2023-06-04T01:07:47;102013.34;;;13.67;100.00
65190;BME280;51777;53.570;9.984;2023-06-04T01:10:13;102017.88;;;13.65;100.00
65190;BME280;51777;53.570;9.984;2023-06-04T01:12:42;102011.97;;;13.63;100.00
65190;BME280;51777;53.570;9.984;2023-06-04T01:15:09;102008.00;;;13.59;100.00
65190;BME280;51777;53.570;9.984;2023-06-04T01:17:43;102007.19;;;13.59;100.00
65190;BME280;51777;53.570;9.984;2023-06-04T01:22:52;102014.16;;;13.58;100.00
65190;BME280;51777;53.570;9.984;2023-06-04T01:27:56;102007.47;;;13.56;100.00
65190;BME280;51777;53.570;9.984;2023-06-04T01:30:28;102009.50;;;13.52;100.00
65190;BME280;51777;53.570;9.984;2023-06-04T01:32:55;102014.94;;;13.49;100.00
65190;BME280;51777;53.570;9.984;2023-06-04T01:35:21;102011.81;;;13.45;100.00
65190;BME280;51777;53.570;9.984;2023-06-04T01:37:47;102004.28;;;13.42;100.00
65190;BME280;51777;53.570;9.984;2023-06-04T01:40:13;102005.38;;;13.40;100.00
65190;BME280;51777;53.570;9.984;2023-06-04T01:42:38;102010.00;;;13.36;100.00
65190;BME280;51777;53.570;9.984;2023-06-04T01:45:04;102009.44;;;13.33;100.00
65190;BME280;51777;53.570;9.984;2023-06-04T01:47:30;102008.31;;;13.26;100.00
65190;BME280;51777;53.570;9.984;2023-06-04T01:49:55;102002.84;;;13.19;100.00
65190;BME280;51777;53.570;9.984;2023-06-04T01:52:21;102009.91;;;13.17;100.00
65190;BME280;51777;53.570;9.984;2023-06-04T01:54:47;101994.47;;;13.15;100.00
65190;BME280;51777;53.570;9.984;2023-06-04T01:57:20;101998.13;;;13.13;100.00
65190;BME280;51777;53.570;9.984;2023-06-04T01:59:46;102005.66;;;13.16;100.00
65190;BME280;51777;53.570;9.984;2023-06-04T02:02:12;102001.53;;;13.13;100.00
65190;BME280;51777;53.570;9.984;2023-06-04T02:04:37;102003.59;;;13.10;100.00
65190;BME280;51777;53.570;9.984;2023-06-04T02:07:06;102001.38;;;13.05;100.00
65190;BME280;51777;53.570;9.984;2023-06-04T02:09:33;101998.94;;;13.04;100.00
65190;BME280;51777;53.570;9.984;2023-06-04T02:11:58;101998.22;;;13.02;100.00
65190;BME280;51777;53.570;9.984;2023-06-04T02:14:23;101993.97;;;13.01;100.00
65190;BME280;51777;53.570;9.984;2023-06-04T02:16:49;101996.56;;;13.01;100.00
65190;BME280;51777;53.570;9.984;2023-06-04T02:19:15;101996.56;;;13.01;100.00
65190;BME280;51777;53.570;9.984;2023-06-04T02:21:40;101999.44;;;12.98;100.00
65190;BME280;51777;53.570;9.984;2023-06-04T02:24:06;102007.50;;;12.94;100.00
65190;BME280;51777;53.570;9.984;2023-06-04T02:26:31;102009.63;;;12.89;100.00
65190;BME280;51777;53.570;9.984;2023-06-04T02:28:57;102004.72;;;12.86;100.00
65190;BME280;51777;53.570;9.984;2023-06-04T02:31:22;102005.66;;;12.85;100.00
65190;BME280;51777;53.570;9.984;2023-06-04T02:33:48;102009.22;;;12.84;100.00
65190;BME280;51777;53.570;9.984;2023-06-04T02:36:13;102003.19;;;12.84;100.00
65190;BME280;51777;53.570;9.984;2023-06-04T02:38:38;102000.72;;;12.82;100.00
65190;BME280;51777;53.570;9.984;2023-06-04T02:41:04;101994.28;;;12.77;100.00
65190;BME280;51777;53.570;9.984;2023-06-04T02:43:29;101998.22;;;12.71;100.00
65190;BME280;51777;53.570;9.984;2023-06-04T02:45:55;101993.16;;;12.70;100.00
65190;BME280;51777;53.570;9.984;2023-06-04T02:48:20;101997.78;;;12.66;100.00
65190;BME280;51777;53.570;9.984;2023-06-04T02:50:46;101999.78;;;12.62;100.00
65190;BME280;51777;53.570;9.984;2023-06-04T02:53:11;102002.78;;;12.58;100.00
65190;BME280;51777;53.570;9.984;2023-06-04T02:55:36;102003.03;;;12.55;100.00
65190;BME280;51777;53.570;9.984;2023-06-04T02:58:02;101998.09;;;12.52;100.00
65190;BME280;51777;53.570;9.984;2023-06-04T03:00:28;101998.09;;;12.52;100.00
65190;BME280;51777;53.570;9.984;2023-06-04T03:02:53;101999.75;;;12.53;100.00
65190;BME280;51777;53.570;9.984;2023-06-04T03:05:26;101995.63;;;12.50;100.00
65190;BME280;51777;53.570;9.984;2023-06-04T03:07:52;101994.81;;;12.50;100.00
65190;BME280;51777;53.570;9.984;2023-06-04T03:10:18;101997.53;;;12.48;100.00
65190;BME280;51777;53.570;9.984;2023-06-04T03:12:43;101997.53;;;12.48;100.00
65190;BME280;51777;53.570;9.984;2023-06-04T03:15:09;101991.53;;;12.48;100.00
65190;BME280;51777;53.570;9.984;2023-06-04T03:17:35;101995.63;;;12.50;100.00
65190;BME280;51777;53.570;9.984;2023-06-04T03:20:00;101988.53;;;12.52;100.00
65190;BME280;51777;53.570;9.984;2023-06-04T03:22:26;101988.44;;;12.54;100.00
65190;BME280;51777;53.570;9.984;2023-06-04T03:24:54;101985.13;;;12.52;100.00
65190;BME280;51777;53.570;9.984;2023-06-04T03:27:20;101988.78;;;12.49;100.00
65190;BME280;51777;53.570;9.984;2023-06-04T03:29:45;101982.78;;;12.49;100.00
65190;BME280;51777;53.570;9.984;2023-06-04T03:32:11;101980.84;;;12.41;100.00
65190;BME280;51777;53.570;9.984;2023-06-04T03:34:37;101979.75;;;12.44;100.00
65190;BME280;51777;53.570;9.984;2023-06-04T03:37:03;101993.41;;;12.46;100.00
65190;BME280;51777;53.570;9.984;2023-06-04T03:39:28;101987.97;;;12.49;100.00
65190;BME280;51777;53.570;9.984;2023-06-04T03:41:54;101994.66;;;12.51;100.00
65190;BME280;51777;53.570;9.984;2023-06-04T03:44:21;101995.50;;;12.52;100.00
65190;BME280;51777;53.570;9.984;2023-06-04T03:46:46;101992.06;;;12.51;100.00
65190;BME280;51777;53.570;9.984;2023-06-04T03:49:13;101992.22;;;12.50;100.00
65190;BME280;51777;53.570;9.984;2023-06-04T03:51:39;101992.22;;;12.50;100.00
65190;BME280;51777;53.570;9.984;2023-06-04T03:54:05;101987.72;;;12.52;100.00
65190;BME280;51777;53.570;9.984;2023-06-04T03:56:31;101993.63;;;12.54;100.00
65190;BME280;51777;53.570;9.984;2023-06-04T03:58:56;101987.63;;;12.53;100.00
65190;BME280;51777;53.570;9.984;2023-06-04T04:01:22;101989.38;;;12.53;100.00
65190;BME280;51777;53.570;9.984;2023-06-04T04:03:51;101993.63;;;12.54;100.00
65190;BME280;51777;53.570;9.984;2023-06-04T04:06:17;101998.81;;;12.54;100.00
65190;BME280;51777;53.570;9.984;2023-06-04T04:08:50;101994.56;;;12.53;100.00
65190;BME280;51777;53.570;9.984;2023-06-04T04:11:16;101998.09;;;12.52;100.00
65190;BME280;51777;53.570;9.984;2023-06-04T04:13:42;102000.94;;;12.49;100.00
65190;BME280;51777;53.570;9.984;2023-06-04T04:16:07;102006.13;;;12.49;100.00
65190;BME280;51777;53.570;9.984;2023-06-04T04:18:34;102008.72;;;12.49;100.00
65190;BME280;51777;53.570;9.984;2023-06-04T04:21:00;102006.13;;;12.49;100.00
65190;BME280;51777;53.570;9.984;2023-06-04T04:23:25;102001.63;;;12.51;100.00
65190;BME280;51777;53.570;9.984;2023-06-04T04:25:52;102005.69;;;12.44;100.00
65190;BME280;51777;53.570;9.984;2023-06-04T04:28:19;102004.50;;;12.48;100.00
65190;BME280;51777;53.570;9.984;2023-06-04T04:30:44;102010.97;;;12.53;100.00
65190;BME280;51777;53.570;9.984;2023-06-04T04:33:10;102013.09;;;12.48;100.00
65190;BME280;51777;53.570;9.984;2023-06-04T04:35:36;102009.88;;;12.56;100.00
65190;BME280;51777;53.570;9.984;2023-06-04T04:38:01;102010.03;;;12.64;100.00
65190;BME280;51777;53.570;9.984;2023-06-04T04:40:30;102011.31;;;12.70;100.00
65190;BME280;51777;53.570;9.984;2023-06-04T04:42:57;102016.81;;;12.76;100.00
65190;BME280;51777;53.570;9.984;2023-06-04T04:45:23;102019.59;;;12.84;100.00
65190;BME280;51777;53.570;9.984;2023-06-04T04:47:48;102012.22;;;12.89;100.00
65190;BME280;51777;53.570;9.984;2023-06-04T04:50:16;102013.59;;;12.84;100.00
65190;BME280;51777;53.570;9.984;2023-06-04T04:52:41;102021.50;;;12.82;100.00
65190;BME280;51777;53.570;9.984;2023-06-04T04:55:07;102018.72;;;12.74;100.00
65190;BME280;51777;53.570;9.984;2023-06-04T04:57:33;102021.31;;;12.74;100.00
65190;BME280;51777;53.570;9.984;2023-06-04T04:59:58;102016.31;;;12.82;100.00
65190;BME280;51777;53.570;9.984;2023-06-04T05:02:23;102021.22;;;12.85;100.00
65190;BME280;51777;53.570;9.984;2023-06-04T05:04:49;102012.91;;;12.82;100.00
65190;BME280;51777;53.570;9.984;2023-06-04T05:07:14;102013.44;;;12.85;100.00
65190;BME280;51777;53.570;9.984;2023-06-04T05:09:40;102018.50;;;12.87;100.00
65190;BME280;51777;53.570;9.984;2023-06-04T05:12:05;102031.41;;;12.98;100.00
65190;BME280;51777;53.570;9.984;2023-06-04T05:14:32;102021.56;;;12.92;100.00
65190;BME280;51777;53.570;9.984;2023-06-04T05:16:57;102024.63;;;13.07;100.00
65190;BME280;51777;53.570;9.984;2023-06-04T05:19:23;102019.03;;;13.11;100.00
65190;BME280;51777;53.570;9.984;2023-06-04T05:21:50;102024.03;;;13.24;100.00
65190;BME280;51777;53.570;9.984;2023-06-04T05:24:16;102014.59;;;13.23;100.00
65190;BME280;51777;53.570;9.984;2023-06-04T05:26:41;102021.47;;;13.34;100.00
65190;BME280;51777;53.570;9.984;2023-06-04T05:29:08;102025.84;;;13.33;100.00
65190;BME280;51777;53.570;9.984;2023-06-04T05:31:34;102025.00;;;13.23;100.00
65190;BME280;51777;53.570;9.984;2023-06-04T05:34:00;102019.56;;;13.36;100.00
65190;BME280;51777;53.570;9.984;2023-06-04T05:36:29;102028.88;;;13.38;100.00
65190;BME280;51777;53.570;9.984;2023-06-04T05:38:54;102035.84;;;13.38;100.00
65190;BME280;51777;53.570;9.984;2023-06-04T05:41:26;102029.75;;;13.58;100.00
65190;BME280;51777;53.570;9.984;2023-06-04T05:43:52;102030.59;;;13.68;100.00
65190;BME280;51777;53.570;9.984;2023-06-04T05:46:18;102034.19;;;13.77;100.00
65190;BME280;51777;53.570;9.984;2023-06-04T05:48:44;102035.53;;;13.81;100.00
65190;BME280;51777;53.570;9.984;2023-06-04T05:51:13;102035.81;;;13.97;100.00
65190;BME280;51777;53.570;9.984;2023-06-04T05:53:40;102031.47;;;14.07;100.00
65190;BME280;51777;53.570;9.984;2023-06-04T05:56:05;102037.88;;;14.13;100.00
65190;BME280;51777;53.570;9.984;2023-06-04T05:58:33;102034.47;;;14.13;100.00
65190;BME280;51777;53.570;9.984;2023-06-04T06:00:59;102033.50;;;14.23;100.00
65190;BME280;51777;53.570;9.984;2023-06-04T06:03:25;102034.75;;;14.29;100.00
65190;BME280;51777;53.570;9.984;2023-06-04T06:05:52;102036.94;;;14.33;100.00
65190;BME280;51777;53.570;9.984;2023-06-04T06:08:19;102045.69;;;14.42;100.00
65190;BME280;51777;53.570;9.984;2023-06-04T06:10:45;102044.19;;;14.49;100.00
65190;BME280;51777;53.570;9.984;2023-06-04T06:13:11;102050.22;;;14.50;100.00
65190;BME280;51777;53.570;9.984;2023-06-04T06:15:36;102053.34;;;14.44;100.00
65190;BME280;51777;53.570;9.984;2023-06-04T06:18:02;102052.13;;;14.57;100.00
65190;BME280;51777;53.570;9.984;2023-06-04T06:20:27;102045.97;;;14.58;100.00
65190;BME280;51777;53.570;9.984;2023-06-04T06:22:54;102056.91;;;14.72;100.00
65190;BME280;51777;53.570;9.984;2023-06-04T06:25:20;102051.41;;;14.75;100.00
65190;BME280;51777;53.570;9.984;2023-06-04T06:27:45;102058.38;;;14.93;100.00
65190;BME280;51777;53.570;9.984;2023-06-04T06:30:11;102051.50;;;15.02;100.00
65190;BME280;51777;53.570;9.984;2023-06-04T06:32:37;102057.66;;;15.01;100.00
65190;BME280;51777;53.570;9.984;2023-06-04T06:35:03;102057.25;;;14.96;100.00
65190;BME280;51777;53.570;9.984;2023-06-04T06:37:29;102057.47;;;15.12;100.00
65190;BME280;51777;53.570;9.984;2023-06-04T06:39:54;102064.13;;;15.24;100.00
65190;BME280;51777;53.570;9.984;2023-06-04T06:42:20;102061.63;;;15.42;100.00
65190;BME280;51777;53.570;9.984;2023-06-04T06:44:45;102061.00;;;15.48;100.00
65190;BME280;51777;53.570;9.984;2023-06-04T06:47:10;102061.72;;;15.50;100.00
65190;BME280;51777;53.570;9.984;2023-06-04T06:49:40;102067.88;;;15.49;100.00
65190;BME280;51777;53.570;9.984;2023-06-04T06:52:05;102066.47;;;15.65;100.00
65190;BME280;51777;53.570;9.984;2023-06-04T06:54:31;102067.50;;;15.72;100.00
65190;BME280;51777;53.570;9.984;2023-06-04T06:56:56;102065.72;;;15.72;100.00
65190;BME280;51777;53.570;9.984;2023-06-04T06:59:22;102063.66;;;15.94;100.00
65190;BME280;51777;53.570;9.984;2023-06-04T07:01:48;102070.63;;;16.03;100.00
65190;BME280;51777;53.570;9.984;2023-06-04T07:04:15;102066.16;;;16.13;100.00
65190;BME280;51777;53.570;9.984;2023-06-04T07:06:42;102073.22;;;16.21;100.00
65190;BME280;51777;53.570;9.984;2023-06-04T07:09:07;102071.72;;;16.18;100.00
65190;BME280;51777;53.570;9.984;2023-06-04T07:11:33;102073.72;;;16.24;100.00
65190;BME280;51777;53.570;9.984;2023-06-04T07:13:59;102069.56;;;16.31;100.00
65190;BME280;51777;53.570;9.984;2023-06-04T07:16:24;102068.22;;;16.27;100.00
65190;BME280;51777;53.570;9.984;2023-06-04T07:18:50;102072.53;;;16.36;100.00
65190;BME280;51777;53.570;9.984;2023-06-04T07:21:16;102073.41;;;16.63;100.00
65190;BME280;51777;53.570;9.984;2023-06-04T07:23:42;102070.63;;;16.82;100.00
65190;BME280;51777;53.570;9.984;2023-06-04T07:26:08;102067.50;;;17.05;100.00
65190;BME280;51777;53.570;9.984;2023-06-04T07:28:34;102068.19;;;17.15;100.00
65190;BME280;51777;53.570;9.984;2023-06-04T07:31:00;102068.38;;;17.21;100.00
65190;BME280;51777;53.570;9.984;2023-06-04T07:33:25;102071.47;;;17.17;100.00
65190;BME280;51777;53.570;9.984;2023-06-04T07:35:51;102066.94;;;17.27;100.00
65190;BME280;51777;53.570;9.984;2023-06-04T07:38:16;102077.59;;;17.33;100.00
65190;BME280;51777;53.570;9.984;2023-06-04T07:40:43;102065.06;;;17.45;100.00
65190;BME280;51777;53.570;9.984;2023-06-04T07:43:10;102067.38;;;17.56;100.00
65190;BME280;51777;53.570;9.984;2023-06-04T07:45:35;102059.69;;;17.55;100.00
65190;BME280;51777;53.570;9.984;2023-06-04T07:48:00;102066.34;;;17.75;100.00
65190;BME280;51777;53.570;9.984;2023-06-04T07:50:26;102067.16;;;17.76;100.00
65190;BME280;51777;53.570;9.984;2023-06-04T07:52:51;102063.22;;;17.80;100.00
65190;BME280;51777;53.570;9.984;2023-06-04T07:55:17;102065.53;;;17.91;100.00
65190;BME280;51777;53.570;9.984;2023-06-04T07:57:42;102070.00;;;18.23;100.00
65190;BME280;51777;53.570;9.984;2023-06-04T08:00:08;102070.16;;;18.30;100.00
65190;BME280;51777;53.570;9.984;2023-06-04T08:02:34;102070.81;;;18.40;100.00
65190;BME280;51777;53.570;9.984;2023-06-04T08:05:00;102070.47;;;18.59;100.00
65190;BME280;51777;53.570;9.984;2023-06-04T08:07:27;102075.69;;;18.84;100.00
65190;BME280;51777;53.570;9.984;2023-06-04T08:09:53;102082.69;;;19.55;100.00
65190;BME280;51777;53.570;9.984;2023-06-04T08:12:18;102079.13;;;21.29;100.00
65190;BME280;51777;53.570;9.984;2023-06-04T08:14:44;102095.59;;;22.53;100.00
65190;BME280;51777;53.570;9.984;2023-06-04T08:17:09;102099.78;;;24.98;100.00
65190;BME280;51777;53.570;9.984;2023-06-04T08:19:35;102106.84;;;26.32;99.47
65190;BME280;51777;53.570;9.984;2023-06-04T08:22:00;102107.50;;;26.96;98.65
65190;BME280;51777;53.570;9.984;2023-06-04T08:24:25;102111.47;;;26.12;99.97
65190;BME280;51777;53.570;9.984;2023-06-04T08:26:51;102110.94;;;26.28;97.91
65190;BME280;51777;53.570;9.984;2023-06-04T08:29:18;102120.69;;;28.52;95.45
65190;BME280;51777;53.570;9.984;2023-06-04T08:31:43;102124.97;;;29.40;95.18
65190;BME280;51777;53.570;9.984;2023-06-04T08:34:09;102129.41;;;30.97;94.36
65190;BME280;51777;53.570;9.984;2023-06-04T08:36:35;102136.16;;;32.30;92.82
65190;BME280;51777;53.570;9.984;2023-06-04T08:39:00;102140.88;;;33.07;91.70
65190;BME280;51777;53.570;9.984;2023-06-04T08:41:43;102139.09;;;32.33;90.07
65190;BME280;51777;53.570;9.984;2023-06-04T08:44:10;102137.19;;;31.70;91.49
65190;BME280;51777;53.570;9.984;2023-06-04T08:46:39;102149.78;;;32.70;89.95
65190;BME280;51777;53.570;9.984;2023-06-04T08:49:08;102147.66;;;33.25;90.16
65190;BME280;51777;53.570;9.984;2023-06-04T08:51:36;102144.34;;;32.60;89.02
65190;BME280;51777;53.570;9.984;2023-06-04T08:54:05;102141.13;;;32.58;89.16
65190;BME280;51777;53.570;9.984;2023-06-04T08:56:31;102132.47;;;31.06;91.01
65190;BME280;51777;53.570;9.984;2023-06-04T08:59:01;102150.56;;;33.18;89.98
65190;BME280;51777;53.570;9.984;2023-06-04T09:01:28;102144.59;;;34.14;88.83
65190;BME280;51777;53.570;9.984;2023-06-04T09:03:54;102151.78;;;34.65;88.38
65190;BME280;51777;53.570;9.984;2023-06-04T09:06:24;102154.78;;;34.12;87.93
65190;BME280;51777;53.570;9.984;2023-06-04T09:08:50;102154.75;;;34.63;87.88
65190;BME280;51777;53.570;9.984;2023-06-04T09:11:17;102151.78;;;34.34;87.26
65190;BME280;51777;53.570;9.984;2023-06-04T09:13:47;102153.44;;;34.10;88.09
65190;BME280;51777;53.570;9.984;2023-06-04T09:16:12;102162.81;;;34.23;88.14
65190;BME280;51777;53.570;9.984;2023-06-04T09:18:38;102153.81;;;35.03;87.85
65190;BME280;51777;53.570;9.984;2023-06-04T09:21:08;102158.50;;;33.76;87.29
65190;BME280;51777;53.570;9.984;2023-06-04T09:23:44;102160.41;;;34.62;86.81
65190;BME280;51777;53.570;9.984;2023-06-04T09:26:10;102162.00;;;34.63;86.65
65190;BME280;51777;53.570;9.984;2023-06-04T09:28:46;102168.88;;;35.05;85.60
65190;BME280;51777;53.570;9.984;2023-06-04T09:31:16;102171.66;;;35.33;85.89
65190;BME280;51777;53.570;9.984;2023-06-04T09:33:49;102170.34;;;34.61;85.64
65190;BME280;51777;53.570;9.984;2023-06-04T09:36:15;102161.06;;;33.30;87.12
65190;BME280;51777;53.570;9.984;2023-06-04T09:38:41;102154.09;;;31.48;87.87
65190;BME280;51777;53.570;9.984;2023-06-04T09:41:17;102152.84;;;31.12;88.63
65190;BME280;51777;53.570;9.984;2023-06-04T09:43:45;102160.53;;;33.33;88.16
65190;BME280;51777;53.570;9.984;2023-06-04T09:46:12;102163.22;;;33.28;87.48
65190;BME280;51777;53.570;9.984;2023-06-04T09:48:38;102156.09;;;33.74;86.73
65190;BME280;51777;53.570;9.984;2023-06-04T09:51:12;102159.09;;;33.05;87.50
65190;BME280;51777;53.570;9.984;2023-06-04T09:53:38;102151.22;;;33.41;86.92
65190;BME280;51777;53.570;9.984;2023-06-04T09:56:04;102159.38;;;34.12;86.85
65190;BME280;51777;53.570;9.984;2023-06-04T09:58:32;102154.22;;;33.65;86.96
65190;BME280;51777;53.570;9.984;2023-06-04T10:01:00;102150.94;;;33.37;87.06
65190;BME280;51777;53.570;9.984;2023-06-04T10:03:31;102136.88;;;30.23;88.75
65190;BME280;51777;53.570;9.984;2023-06-04T10:05:58;102134.69;;;30.20;89.08
65190;BME280;51777;53.570;9.984;2023-06-04T10:08:27;102138.97;;;31.37;88.34
65190;BME280;51777;53.570;9.984;2023-06-04T10:11:00;102141.47;;;31.71;88.46
65190;BME280;51777;53.570;9.984;2023-06-04T10:13:30;102152.72;;;32.64;88.08
65190;BME280;51777;53.570;9.984;2023-06-04T10:15:59;102141.44;;;31.66;88.04
65190;BME280;51777;53.570;9.984;2023-06-04T10:18:28;102136.00;;;31.82;87.73
65190;BME280;51777;53.570;9.984;2023-06-04T10:20:55;102148.41;;;32.26;88.25
65190;BME280;51777;53.570;9.984;2023-06-04T10:23:21;102142.03;;;32.00;88.12
65190;BME280;51777;53.570;9.984;2023-06-04T10:25:49;102133.09;;;32.21;88.40
65190;BME280;51777;53.570;9.984;2023-06-04T10:28:18;102138.53;;;32.68;87.96
65190;BME280;51777;53.570;9.984;2023-06-04T10:30:45;102134.88;;;32.85;87.83
65190;BME280;51777;53.570;9.984;2023-06-04T10:33:15;102136.38;;;31.96;88.38
65190;BME280;51777;53.570;9.984;2023-06-04T10:35:40;102138.97;;;32.50;88.19
65190;BME280;51777;53.570;9.984;2023-06-04T10:38:09;102145.38;;;32.91;87.73
65190;BME280;51777;53.570;9.984;2023-06-04T10:40:36;102134.91;;;31.30;88.15
65190;BME280;51777;53.570;9.984;2023-06-04T10:43:06;102122.13;;;30.37;89.21
65190;BME280;51777;53.570;9.984;2023-06-04T10:45:32;102122.75;;;29.77;90.16
65190;BME280;51777;53.570;9.984;2023-06-04T10:48:05;102112.00;;;29.04;91.24
65190;BME280;51777;53.570;9.984;2023-06-04T10:50:31;102115.00;;;29.36;90.05
65190;BME280;51777;53.570;9.984;2023-06-04T10:52:57;102117.75;;;29.98;90.32
65190;BME280;51777;53.570;9.984;2023-06-04T10:55:24;102123.53;;;30.23;90.20
65190;BME280;51777;53.570;9.984;2023-06-04T11:00:18;102128.63;;;30.08;90.46
65190;BME280;51777;53.570;9.984;2023-06-04T11:03:10;102125.47;;;30.45;89.24
65190;BME280;51777;53.570;9.984;2023-06-04T11:05:37;102125.56;;;30.88;88.95
65190;BME280;51777;53.570;9.984;2023-06-04T11:08:04;102132.00;;;30.54;89.76
65190;BME280;51777;53.570;9.984;2023-06-04T11:10:51;102126.69;;;30.92;88.79
65190;BME280;51777;53.570;9.984;2023-06-04T11:13:25;102123.28;;;30.42;89.54
65190;BME280;51777;53.570;9.984;2023-06-04T11:15:51;102119.81;;;30.41;89.97
65190;BME280;51777;53.570;9.984;2023-06-04T11:18:17;102116.38;;;30.79;89.60
65190;BME280;51777;53.570;9.984;2023-06-04T11:20:47;102128.03;;;30.95;88.80
65190;BME280;51777;53.570;9.984;2023-06-04T11:23:14;102119.84;;;31.23;89.58
65190;BME280;51777;53.570;9.984;2023-06-04T11:25:40;102114.44;;;30.58;90.19
65190;BME280;51777;53.570;9.984;2023-06-04T11:28:07;102111.16;;;29.72;90.97
65190;BME280;51777;53.570;9.984;2023-06-04T11:30:33;102112.88;;;30.79;90.23
65190;BME280;51777;53.570;9.984;2023-06-04T11:33:04;102121.69;;;31.45;89.45
65190;BME280;51777;53.570;9.984;2023-06-04T11:35:31;102120.28;;;31.15;89.39
65190;BME280;51777;53.570;9.984;2023-06-04T11:37:58;102117.56;;;31.32;89.70
65190;BME280;51777;53.570;9.984;2023-06-04T11:40:24;102100.41;;;28.98;91.33
65190;BME280;51777;53.570;9.984;2023-06-04T11:42:52;102103.88;;;30.29;90.68
65190;BME280;51777;53.570;9.984;2023-06-04T11:45:20;102110.19;;;31.01;89.88
65190;BME280;51777;53.570;9.984;2023-06-04T11:47:55;102106.53;;;30.46;89.57
65190;BME280;51777;53.570;9.984;2023-06-04T11:50:23;102107.41;;;31.34;89.33
65190;BME280;51777;53.570;9.984;2023-06-04T11:52:52;102115.03;;;32.01;88.70
65190;BME280;51777;53.570;9.984;2023-06-04T11:55:18;102118.91;;;31.35;88.93
65190;BME280;51777;53.570;9.984;2023-06-04T11:57:48;102115.03;;;32.01;88.21
65190;BME280;51777;53.570;9.984;2023-06-04T12:00:15;102110.84;;;31.30;88.99
65190;BME280;51777;53.570;9.984;2023-06-04T12:02:52;102103.13;;;31.60;89.12
65190;BME280;51777;53.570;9.984;2023-06-04T12:05:18;102107.84;;;32.39;88.63
65190;BME280;51777;53.570;9.984;2023-06-04T12:07:46;102115.09;;;32.91;88.09
65190;BME280;51777;53.570;9.984;2023-06-04T12:10:13;102116.16;;;32.95;88.23
65190;BME280;51777;53.570;9.984;2023-06-04T12:12:38;102123.50;;;33.20;87.75
65190;BME280;51777;53.570;9.984;2023-06-04T12:15:06;102123.19;;;32.22;87.97
65190;BME280;51777;53.570;9.984;2023-06-04T12:17:32;102111.84;;;32.04;88.61
65190;BME280;51777;53.570;9.984;2023-06-04T12:19:58;102107.38;;;31.29;88.66
65190;BME280;51777;53.570;9.984;2023-06-04T12:22:25;102104.94;;;31.76;88.79
65190;BME280;51777;53.570;9.984;2023-06-04T12:24:56;102118.16;;;32.67;88.16
65190;BME280;51777;53.570;9.984;2023-06-04T12:27:23;102107.25;;;32.32;88.09
65190;BME280;51777;53.570;9.984;2023-06-04T12:30:05;102120.28;;;33.13;87.03
65190;BME280;51777;53.570;9.984;2023-06-04T12:32:34;102109.78;;;33.01;86.90
65190;BME280;51777;53.570;9.984;2023-06-04T12:35:03;102095.25;;;32.07;88.30
65190;BME280;51777;53.570;9.984;2023-06-04T12:37:29;102105.00;;;33.18;87.71
65190;BME280;51777;53.570;9.984;2023-06-04T12:39:54;102100.53;;;33.39;87.55
65190;BME280;51777;53.570;9.984;2023-06-04T12:42:20;102095.16;;;34.10;87.07
65190;BME280;51777;53.570;9.984;2023-06-04T12:44:46;102102.41;;;34.40;86.70
65190;BME280;51777;53.570;9.984;2023-06-04T12:47:11;102103.78;;;34.02;87.07
65190;BME280;51777;53.570;9.984;2023-06-04T12:49:37;102101.38;;;34.01;87.11
65190;BME280;51777;53.570;9.984;2023-06-04T12:52:05;102098.34;;;34.53;86.17